Time;durP1;ratioP1;P1;durP2;ratioP2;P2;SDS_P1;SDS_P2;PMS_P1;PMS_P2;Temp;Humidity;BMP_temperature;BMP_pressure;BME280_temperature;BME280_humidity;BME280_pressure;Samples;Min_cycle;Max_cycle;Signal;HPM_P1;HPM_P2
2023/04/01 04:31:26;;;;;;;4.95;1.42;;;11.60;76.50;;;;;;5484946;23;20660;-78
2023/04/01 04:33:52;;;;;;;3.28;1.60;;;11.70;76.50;;;;;;4986363;28;20031;-78
2023/04/01 04:36:19;;;;;;;5.68;1.30;;;11.70;76.40;;;;;;4978523;28;20031;-78
2023/04/01 04:38:45;;;;;;;6.50;1.27;;;11.70;76.60;;;;;;4979250;28;20050;-78
2023/04/01 04:41:12;;;;;;;5.13;1.15;;;11.50;76.90;;;;;;4988517;28;20030;-78
2023/04/01 04:43:39;;;;;;;3.40;0.90;;;11.50;77.00;;;;;;4987084;28;20034;-78
2023/04/01 04:46:09;;;;;;;2.70;1.25;;;11.60;76.90;;;;;;4961588;28;20789;-78
2023/04/01 04:48:35;;;;;;;7.85;1.23;;;11.50;76.40;;;;;;4979305;28;20019;-78
2023/04/01 04:51:01;;;;;;;2.60;1.10;;;11.50;76.30;;;;;;4977657;28;20482;-78
2023/04/01 04:53:27;;;;;;;6.90;1.55;;;11.50;76.50;;;;;;4979402;28;20047;-78
2023/04/01 04:55:53;;;;;;;7.80;1.55;;;11.50;76.50;;;;;;4978985;28;20061;-79
2023/04/01 04:58:19;;;;;;;6.70;1.17;;;11.30;76.70;;;;;;4978987;28;20044;-79
2023/04/01 05:00:45;;;;;;;4.13;1.15;;;11.30;76.80;;;;;;4978688;28;20038;-79
2023/04/01 05:03:12;;;;;;;5.88;1.15;;;11.40;76.60;;;;;;4978569;28;20576;-79
2023/04/01 05:05:38;;;;;;;4.05;1.02;;;11.40;76.40;;;;;;4983808;28;20424;-79
2023/04/01 05:08:04;;;;;;;7.47;1.40;;;11.30;76.30;;;;;;4976431;28;20073;-79
2023/04/01 05:10:31;;;;;;;3.40;1.40;;;11.30;76.40;;;;;;4980332;28;20031;-79
2023/04/01 05:12:56;;;;;;;7.43;1.20;;;11.30;76.10;;;;;;4998430;28;20026;-79
2023/04/01 05:15:22;;;;;;;7.45;1.38;;;11.30;76.10;;;;;;4977109;28;20070;-79
2023/04/01 05:17:48;;;;;;;7.75;1.33;;;11.30;76.00;;;;;;4978933;28;20023;-79
2023/04/01 05:20:15;;;;;;;7.75;1.50;;;11.30;75.90;;;;;;4989875;28;20041;-80
2023/04/01 05:22:41;;;;;;;4.85;1.20;;;11.30;76.00;;;;;;4994435;28;20015;-79
2023/04/01 05:25:07;;;;;;;5.85;1.23;;;11.30;76.00;;;;;;4978909;28;20065;-79
2023/04/01 05:27:33;;;;;;;5.50;1.08;;;11.30;76.00;;;;;;4989985;28;20041;-79
2023/04/01 05:29:58;;;;;;;5.82;1.13;;;11.30;76.10;;;;;;4980617;28;20023;-79
2023/04/01 05:32:24;;;;;;;1.77;1.00;;;11.40;76.20;;;;;;4976971;28;20043;-77
2023/04/01 05:34:53;;;;;;;6.10;1.42;;;11.20;76.20;;;;;;4978591;28;20046;-79
2023/04/01 05:37:19;;;;;;;6.75;1.55;;;11.20;76.30;;;;;;4987991;28;20392;-78
2023/04/01 05:39:45;;;;;;;7.20;1.13;;;11.20;76.30;;;;;;4993687;28;20105;-79
2023/04/01 05:42:11;;;;;;;3.22;1.30;;;11.20;76.10;;;;;;4995580;28;20026;-81
2023/04/01 05:44:37;;;;;;;7.57;1.20;;;11.20;76.00;;;;;;4997684;28;20397;-78
2023/04/01 05:47:04;;;;;;;5.22;1.05;;;11.20;75.90;;;;;;4997521;28;20034;-78
2023/04/01 05:49:30;;;;;;;4.93;1.05;;;11.20;75.70;;;;;;4986492;28;20022;-78
2023/04/01 05:51:56;;;;;;;7.72;1.17;;;11.20;75.70;;;;;;4983520;28;20859;-77
2023/04/01 05:54:22;;;;;;;4.22;1.23;;;11.20;75.70;;;;;;4978429;28;20474;-78
2023/04/01 05:56:47;;;;;;;4.88;1.10;;;11.20;75.70;;;;;;4977952;28;20102;-83
2023/04/01 05:59:13;;;;;;;4.82;1.13;;;11.20;75.80;;;;;;4981822;28;20057;-82
2023/04/01 06:01:39;;;;;;;3.25;1.33;;;11.20;75.90;;;;;;4997473;28;20036;-82
2023/04/01 06:04:05;;;;;;;4.70;1.30;;;11.20;75.80;;;;;;4995248;28;20034;-82
2023/04/01 06:06:32;;;;;;;6.38;1.52;;;11.10;75.90;;;;;;4979851;28;20027;-78
2023/04/01 06:09:07;;;;;;;9.80;1.75;;;11.10;76.10;;;;;;4975569;28;20033;-78
2023/04/01 06:11:41;;;;;;;9.45;1.75;;;11.10;76.10;;;;;;4989636;28;20121;-80
2023/04/01 06:14:11;;;;;;;5.22;1.52;;;11.20;76.30;;;;;;4978067;28;20101;-80
2023/04/01 06:16:55;;;;;;;6.53;1.27;;;11.20;76.50;;;;;;4980718;28;20031;-86
2023/04/01 06:19:25;;;;;;;5.57;1.08;;;11.30;76.20;;;;;;4988052;28;20042;-87
2023/04/01 06:21:57;;;;;;;;;;;11.30;76.20;;;;;;4970350;28;20114;-84
2023/04/01 06:24:41;;;;;;;4.45;1.00;;;11.40;76.10;;;;;;4969704;28;20389;-78
2023/04/01 06:27:35;;;;;;;10.93;1.30;;;11.40;75.90;;;;;;4989788;28;20378;-79
2023/04/01 06:30:28;;;;;;;3.55;1.20;;;11.30;75.80;;;;;;4996238;28;20061;-80
2023/04/01 06:33:02;;;;;;;2.25;0.85;;;11.30;75.90;;;;;;4994884;28;20038;-79
2023/04/01 06:36:00;;;;;;;4.18;1.20;;;11.30;76.20;;;;;;4979392;28;20456;-81
2023/04/01 06:39:02;;;;;;;5.65;1.27;;;11.40;76.10;;;;;;4988978;28;20031;-83
2023/04/01 06:41:37;;;;;;;4.93;1.10;;;11.50;76.00;;;;;;4988738;28;20027;-85
2023/04/01 06:44:19;;;;;;;;;;;;;;;;;;;;;
2023/04/01 06:46:58;;;;;;;3.10;1.05;;;11.30;76.70;;;;;;4984556;28;20038;-88
2023/04/01 06:49:45;;;;;;;3.42;1.23;;;11.40;76.50;;;;;;4980977;28;20117;-84
2023/04/01 06:52:26;;;;;;;8.68;1.58;;;11.50;76.30;;;;;;4970354;28;20030;-78
2023/04/01 06:55:01;;;;;;;7.00;1.70;;;11.50;76.20;;;;;;4988151;28;20027;-81
2023/04/01 06:57:38;;;;;;;5.47;1.15;;;11.60;76.00;;;;;;4975931;28;20042;-79
2023/04/01 07:00:21;;;;;;;5.95;1.33;;;11.70;75.80;;;;;;4978684;28;20087;-79
2023/04/01 07:03:04;;;;;;;8.75;1.70;;;11.70;75.50;;;;;;4988903;28;20140;-79
2023/04/01 07:05:35;;;;;;;4.28;1.80;;;11.80;75.20;;;;;;4981730;28;20374;-83
2023/04/01 07:08:15;;;;;;;5.60;1.75;;;12.20;74.60;;;;;;4967413;28;20429;-85
2023/04/01 07:10:47;;;;;;;8.27;1.80;;;12.50;73.30;;;;;;4979977;28;20019;-82
2023/04/01 07:13:29;;;;;;;4.53;1.65;;;12.80;72.00;;;;;;4967252;28;20019;-80
2023/04/01 07:16:15;;;;;;;8.65;1.40;;;13.60;70.00;;;;;;4986203;28;21443;-81
2023/04/01 07:18:56;;;;;;;9.60;1.73;;;14.50;67.40;;;;;;4995213;28;20034;-83
2023/04/01 07:21:41;;;;;;;7.18;1.40;;;15.40;64.90;;;;;;4962809;28;20390;-83
2023/04/01 07:24:33;;;;;;;6.50;1.05;;;16.20;62.00;;;;;;4981579;28;20023;-87
2023/04/01 07:26:59;;;;;;;10.27;1.48;;;15.90;61.50;;;;;;4971501;28;20038;-87
2023/04/01 07:29:26;;;;;;;6.93;1.33;;;15.70;62.10;;;;;;4990681;28;20018;-87
2023/04/01 07:32:19;;;;;;;4.88;1.20;;;16.00;61.80;;;;;;4990456;28;20072;-87
2023/04/01 07:35:17;;;;;;;2.72;0.80;;;17.00;59.40;;;;;;4972689;28;20029;-88
2023/04/01 07:37:58;;;;;;;7.50;1.75;;;17.60;58.20;;;;;;4974280;28;20029;-88
2023/04/01 07:40:53;;;;;;;6.53;1.08;;;19.00;53.40;;;;;;4972966;28;20026;-87
2023/04/01 07:43:27;;;;;;;7.10;1.17;;;21.20;48.20;;;;;;4957072;28;20101;-88
2023/04/01 07:46:18;;;;;;;6.70;1.48;;;22.30;45.10;;;;;;4988323;28;20114;-88
2023/04/01 07:48:44;;;;;;;8.15;1.40;;;22.50;43.30;;;;;;4991690;28;20026;-88
2023/04/01 07:51:31;;;;;;;8.48;1.60;;;22.10;45.60;;;;;;4987544;28;20030;-85
2023/04/01 07:54:06;;;;;;;6.38;1.70;;;19.80;48.20;;;;;;4977337;28;20493;-87
2023/04/01 07:56:52;;;;;;;9.02;1.30;;;18.30;51.40;;;;;;4989680;28;20027;-86
2023/04/01 07:59:35;;;;;;;8.60;1.42;;;17.50;54.00;;;;;;4989762;28;20026;-84
2023/04/01 08:02:14;;;;;;;5.63;1.40;;;18.60;52.60;;;;;;4987579;28;20031;-84
2023/04/01 08:05:05;;;;;;;6.78;1.50;;;18.90;50.50;;;;;;4988041;28;20093;-86
2023/04/01 08:07:57;;;;;;;5.72;1.27;;;19.60;50.40;;;;;;4971829;28;20042;-87
2023/04/01 08:10:48;;;;;;;8.93;1.40;;;20.30;47.10;;;;;;4956765;28;20493;-86
2023/04/01 08:13:21;;;;;;;5.80;1.60;;;21.10;47.60;;;;;;4972431;28;21033;-87
2023/04/01 08:16:13;;;;;;;4.55;1.33;;;22.00;44.70;;;;;;4987258;28;20030;-87
2023/04/01 08:18:55;;;;;;;12.40;1.88;;;20.90;46.00;;;;;;4977374;28;20043;-87
2023/04/01 08:21:27;;;;;;;8.73;1.73;;;19.80;49.00;;;;;;4980101;28;20486;-88
2023/04/01 08:23:57;;;;;;;4.05;1.10;;;18.80;51.10;;;;;;4984331;28;20022;-88
2023/04/01 08:26:40;;;;;;;10.20;1.38;;;18.60;52.50;;;;;;4995040;28;20030;-88
2023/04/01 08:29:17;;;;;;;6.05;1.17;;;18.10;52.90;;;;;;4973389;28;20046;-88
2023/04/01 08:32:03;;;;;;;10.30;1.65;;;18.10;53.70;;;;;;4957445;28;20051;-87
2023/04/01 08:34:40;;;;;;;10.25;1.70;;;17.50;54.70;;;;;;4953143;28;20027;-87
2023/04/01 08:37:20;;;;;;;6.70;1.42;;;17.20;56.10;;;;;;4972950;28;20042;-87
2023/04/01 08:39:54;;;;;;;5.68;0.93;;;16.80;56.10;;;;;;4962522;28;20027;-90
2023/04/01 08:42:35;;;;;;;7.03;1.30;;;16.60;57.10;;;;;;4959344;28;20034;-89
2023/04/01 08:45:19;;;;;;;5.07;1.13;;;16.40;56.90;;;;;;4961162;28;20549;-90
2023/04/01 08:48:13;;;;;;;5.25;1.92;;;16.40;58.00;;;;;;4960658;28;20169;-89
2023/04/01 08:50:50;;;;;;;5.05;1.75;;;16.30;58.60;;;;;;4972854;28;20038;-89
2023/04/01 08:53:43;;;;;;;6.10;1.30;;;19.00;54.30;;;;;;4961273;28;20031;-89
2023/04/01 08:56:44;;;;;;;8.45;1.80;;;18.80;53.20;;;;;;4979430;28;20071;-89
2023/04/01 08:59:26;;;;;;;;;;;;;;;;;;;;;
2023/04/01 09:02:18;;;;;;;7.30;1.35;;;18.90;51.80;;;;;;4974073;28;20118;-90
2023/04/01 09:04:47;;;;;;;6.68;1.48;;;18.10;53.80;;;;;;4975099;28;20513;-89
2023/04/01 09:07:25;;;;;;;7.70;1.67;;;17.30;55.90;;;;;;4970466;28;20109;-89
2023/04/01 09:10:19;;;;;;;6.63;1.38;;;17.40;56.10;;;;;;4975111;28;20118;-89
2023/04/01 09:12:59;;;;;;;10.55;1.63;;;17.50;56.10;;;;;;4930609;28;20031;-89
2023/04/01 09:16:26;;;;;;;6.88;0.98;;;17.20;56.20;;;;;;4969333;28;20027;-88
2023/04/01 09:18:56;;;;;;;7.30;1.23;;;17.00;57.10;;;;;;4968186;28;20043;-87
2023/04/01 09:21:38;;;;;;;5.57;1.38;;;16.80;57.00;;;;;;4956450;28;20157;-87
2023/04/01 09:24:26;;;;;;;5.75;1.40;;;16.50;58.90;;;;;;4970008;28;20023;-87
2023/04/01 09:27:30;;;;;;;5.65;1.58;;;16.10;60.70;;;;;;4973193;28;20493;-87
2023/04/01 09:30:21;;;;;;;8.45;1.83;;;15.80;61.80;;;;;;4941986;28;20034;-87
2023/04/01 09:33:04;;;;;;;8.18;2.00;;;15.90;62.50;;;;;;4956269;28;20069;-85
2023/04/01 09:36:17;;;;;;;9.68;2.15;;;16.10;61.00;;;;;;4960560;28;20031;-82
2023/04/01 09:38:59;;;;;;;6.80;1.17;;;16.10;61.20;;;;;;4936226;29;20037;-85
2023/04/01 09:41:31;;;;;;;8.45;1.77;;;15.80;62.20;;;;;;4958940;28;20034;-86
2023/04/01 09:44:08;;;;;;;5.50;2.45;;;15.80;63.30;;;;;;4960037;28;20497;-86
2023/04/01 09:47:07;;;;;;;11.80;1.67;;;16.70;62.90;;;;;;4971870;28;20031;-85
2023/04/01 09:49:51;;;;;;;6.90;1.42;;;16.70;61.80;;;;;;4973637;28;20085;-85
2023/04/01 09:52:45;;;;;;;2.40;0.90;;;16.90;61.60;;;;;;4955315;28;20034;-86
2023/04/01 09:55:17;;;;;;;5.53;1.42;;;17.80;60.10;;;;;;4962275;28;20023;-83
2023/04/01 09:58:18;;;;;;;5.18;1.63;;;17.50;59.40;;;;;;4974986;28;20022;-82
2023/04/01 10:01:06;;;;;;;9.50;1.48;;;16.70;60.50;;;;;;4971029;28;20042;-86
2023/04/01 10:03:51;;;;;;;8.85;1.50;;;16.10;62.40;;;;;;4977530;28;20383;-81
2023/04/01 10:06:41;;;;;;;7.32;2.05;;;15.50;65.10;;;;;;4959277;28;20031;-84
2023/04/01 10:09:07;;;;;;;3.60;1.48;;;15.30;66.30;;;;;;4939271;28;20118;-87
2023/04/01 10:12:00;;;;;;;9.80;2.40;;;15.50;66.40;;;;;;4971994;28;20066;-89
2023/04/01 10:14:56;;;;;;;5.90;1.58;;;16.50;65.90;;;;;;4975978;28;20700;-88
2023/04/01 10:17:49;;;;;;;3.40;1.40;;;16.80;64.80;;;;;;4973544;28;20085;-88
2023/04/01 10:20:18;;;;;;;8.65;1.48;;;16.70;62.70;;;;;;4967562;28;20090;-90
2023/04/01 10:23:22;;;;;;;4.93;1.20;;;16.40;64.60;;;;;;4956287;29;20034;-83
2023/04/01 10:26:12;;;;;;;5.10;1.55;;;16.70;64.30;;;;;;4950162;28;20062;-81
2023/04/01 10:28:50;;;;;;;5.32;1.23;;;17.00;62.60;;;;;;4966245;28;20417;-87
2023/04/01 10:31:41;;;;;;;2.20;0.75;;;17.40;62.40;;;;;;4972925;28;20120;-87
2023/04/01 10:34:15;;;;;;;4.03;1.10;;;17.80;59.10;;;;;;4984645;28;20506;-86
2023/04/01 10:36:52;;;;;;;5.45;1.73;;;17.80;57.20;;;;;;4968457;28;20117;-83
2023/04/01 10:39:37;;;;;;;5.00;1.88;;;17.80;57.90;;;;;;4982632;28;20018;-85
2023/04/01 10:42:35;;;;;;;3.83;1.08;;;17.60;57.10;;;;;;4983917;28;20046;-75
2023/04/01 10:45:22;;;;;;;5.10;0.82;;;17.60;57.10;;;;;;4978165;28;20026;-77
2023/04/01 10:48:11;;;;;;;3.85;0.95;;;17.60;57.50;;;;;;4966768;28;20404;-77
2023/04/01 10:51:10;;;;;;;4.97;0.80;;;17.30;55.90;;;;;;4985061;28;20036;-82
2023/04/01 10:54:07;;;;;;;5.60;0.70;;;17.20;57.30;;;;;;4983382;28;20515;-88
2023/04/01 10:56:40;;;;;;;2.88;0.63;;;17.00;58.60;;;;;;4987104;28;20056;-83
2023/04/01 10:59:39;;;;;;;3.65;0.95;;;17.10;58.80;;;;;;4989079;28;20026;-87
2023/04/01 11:02:17;;;;;;;5.20;0.70;;;17.40;59.30;;;;;;4974794;28;20041;-88
2023/04/01 11:05:20;;;;;;;16.45;6.80;;;17.50;58.20;;;;;;4977777;28;20022;-87
2023/04/01 11:08:07;;;;;;;12.70;3.15;;;17.40;57.30;;;;;;4950388;28;20050;-89
2023/04/01 11:10:38;;;;;;;7.82;1.45;;;17.40;57.70;;;;;;4973192;28;20034;-88
2023/04/01 11:13:26;;;;;;;3.88;1.10;;;17.50;57.60;;;;;;4999726;28;20036;-84
2023/04/01 11:16:22;;;;;;;3.03;0.70;;;17.40;56.20;;;;;;4995236;28;20394;-81
2023/04/01 11:19:06;;;;;;;8.65;2.35;;;17.20;56.60;;;;;;4959710;28;20023;-82
2023/04/01 11:21:34;;;;;;;9.60;2.70;;;17.10;59.50;;;;;;4976948;28;20823;-81
2023/04/01 11:24:11;;;;;;;4.25;1.63;;;16.80;60.20;;;;;;4977007;28;20023;-85
2023/04/01 11:26:49;;;;;;;6.90;2.97;;;16.50;61.00;;;;;;4985631;28;20109;-82
2023/04/01 11:29:40;;;;;;;10.55;4.85;;;16.30;61.70;;;;;;4976808;28;20034;-79
2023/04/01 11:32:35;;;;;;;5.90;1.77;;;16.20;61.90;;;;;;4960579;28;20137;-85
2023/04/01 11:35:32;;;;;;;3.80;1.45;;;16.30;62.90;;;;;;4994264;28;20069;-86
2023/04/01 11:38:18;;;;;;;4.15;1.77;;;16.30;62.00;;;;;;4968598;28;20436;-88
2023/04/01 11:40:53;;;;;;;6.95;1.10;;;16.50;61.30;;;;;;4984678;28;20105;-88
2023/04/01 11:43:37;;;;;;;4.43;0.70;;;16.50;61.00;;;;;;4969780;28;20477;-86
2023/04/01 11:46:19;;;;;;;5.45;1.40;;;16.60;61.10;;;;;;4971211;28;20026;-81
2023/04/01 11:49:06;;;;;;;3.63;0.77;;;16.50;61.20;;;;;;4971901;28;20030;-79
2023/04/01 11:52:10;;;;;;;3.00;0.80;;;16.40;61.80;;;;;;4969916;28;20019;-88
2023/04/01 11:55:11;;;;;;;2.97;0.60;;;16.50;62.20;;;;;;4947710;28;20046;-83
2023/04/01 11:57:42;;;;;;;1.45;0.40;;;16.50;62.50;;;;;;4880773;28;20037;-83
2023/04/01 12:00:25;;;;;;;5.93;1.15;;;16.50;61.70;;;;;;4988724;28;20023;-82
2023/04/01 12:03:09;;;;;;;3.90;0.80;;;16.50;60.70;;;;;;4990047;28;20541;-83
2023/04/01 12:05:42;;;;;;;4.38;1.20;;;16.80;61.40;;;;;;4994287;28;20019;-83
2023/04/01 12:08:39;;;;;;;5.28;1.25;;;17.00;60.80;;;;;;4976226;28;20469;-83
2023/04/01 12:11:26;;;;;;;2.58;0.80;;;17.20;57.70;;;;;;4975856;28;20065;-83
2023/04/01 12:14:10;;;;;;;2.63;0.77;;;17.20;56.50;;;;;;4994543;28;20041;-83
2023/04/01 12:16:42;;;;;;;4.70;1.25;;;17.30;56.40;;;;;;4995612;28;20035;-83
2023/04/01 12:19:18;;;;;;;6.57;1.20;;;17.40;57.30;;;;;;4991517;28;20034;-85
2023/04/01 12:22:02;;;;;;;5.60;1.08;;;17.50;56.20;;;;;;4971506;28;20031;-87
2023/04/01 12:24:44;;;;;;;3.35;1.05;;;17.50;56.40;;;;;;4963899;28;20127;-85
2023/04/01 12:27:19;;;;;;;7.47;1.80;;;17.20;55.90;;;;;;4986226;28;20034;-85
2023/04/01 12:30:03;;;;;;;5.03;1.15;;;17.10;57.50;;;;;;4985210;28;20022;-86
2023/04/01 12:32:41;;;;;;;1.98;0.80;;;17.00;56.40;;;;;;4986461;28;20054;-85
2023/04/01 12:35:27;;;;;;;4.10;1.10;;;17.40;56.00;;;;;;4986515;28;20118;-87
2023/04/01 12:38:04;;;;;;;6.18;1.60;;;17.80;55.00;;;;;;4971893;28;20058;-86
2023/04/01 12:41:04;;;;;;;7.45;1.77;;;17.80;55.30;;;;;;4970286;28;20030;-85
2023/04/01 12:43:42;;;;;;;4.95;1.35;;;17.20;61.40;;;;;;4972197;28;20449;-85
2023/04/01 12:46:19;;;;;;;6.43;1.58;;;16.60;61.50;;;;;;4971004;28;20039;-85
2023/04/01 12:49:06;;;;;;;7.25;1.65;;;16.30;62.20;;;;;;4988803;28;20042;-84
2023/04/01 12:51:45;;;;;;;8.23;1.80;;;15.80;62.10;;;;;;4990375;28;20033;-83
2023/04/01 12:54:40;;;;;;;7.65;2.60;;;15.60;62.90;;;;;;4989735;28;20076;-84
2023/04/01 12:57:21;;;;;;;4.80;2.20;;;15.60;63.30;;;;;;4947193;28;20054;-84
2023/04/01 13:00:11;;;;;;;10.77;2.13;;;15.70;64.40;;;;;;4988548;28;20061;-84
2023/04/01 13:03:22;;;;;;;3.90;1.10;;;16.00;61.70;;;;;;4990897;28;20025;-86
2023/04/01 13:06:44;;;;;;;4.35;1.30;;;16.40;59.80;;;;;;4906530;29;20123;-85
2023/04/01 13:09:36;;;;;;;5.20;1.73;;;16.30;58.50;;;;;;4903139;29;20067;-84
2023/04/01 13:12:32;;;;;;;4.18;1.02;;;15.80;59.50;;;;;;4916626;29;20040;-83
2023/04/01 13:15:24;;;;;;;3.80;1.55;;;15.50;60.30;;;;;;4961998;28;20103;-82
2023/04/01 13:18:22;;;;;;;4.18;0.80;;;15.30;60.10;;;;;;4988830;28;20019;-83
2023/04/01 13:21:08;;;;;;;7.70;1.65;;;15.20;60.70;;;;;;4986567;28;20023;-84
2023/04/01 13:23:49;;;;;;;5.80;1.40;;;15.20;61.40;;;;;;4978148;28;20030;-86
2023/04/01 13:26:34;;;;;;;4.07;1.15;;;15.40;62.40;;;;;;4964114;28;20442;-88
2023/04/01 13:29:20;;;;;;;6.38;1.50;;;15.70;62.80;;;;;;4990128;28;20023;-89
2023/04/01 13:32:02;;;;;;;10.15;1.73;;;15.90;62.40;;;;;;4990782;28;20042;-88
2023/04/01 13:34:27;;;;;;;7.18;2.35;;;16.00;61.90;;;;;;4983722;28;20018;-91
2023/04/01 13:37:05;;;;;;;9.38;1.60;;;16.00;62.80;;;;;;4976141;28;20092;-90
2023/04/01 13:39:52;;;;;;;9.60;1.77;;;16.20;63.40;;;;;;4974570;28;20033;-88
2023/04/01 13:42:41;;;;;;;6.53;1.75;;;16.20;62.20;;;;;;4991708;28;20027;-80
2023/04/01 13:45:35;;;;;;;6.03;1.63;;;16.30;63.30;;;;;;4969509;28;20027;-86
2023/04/01 13:48:06;;;;;;;6.45;1.23;;;16.20;63.10;;;;;;4985441;28;20019;-84
2023/04/01 13:50:46;;;;;;;14.25;1.95;;;16.10;63.20;;;;;;4963071;28;20042;-85
2023/04/01 13:53:19;;;;;;;7.28;1.48;;;16.10;61.90;;;;;;4986442;28;20035;-86
2023/04/01 13:55:53;;;;;;;10.13;2.22;;;16.10;61.80;;;;;;4968663;28;20066;-85
2023/04/01 13:58:38;;;;;;;7.18;1.30;;;16.00;61.80;;;;;;4971780;28;20023;-86
2023/04/01 14:01:15;;;;;;;7.38;1.25;;;15.80;62.30;;;;;;4986736;28;20108;-85
2023/04/01 14:04:04;;;;;;;11.00;1.30;;;15.70;63.50;;;;;;4995002;28;20029;-84
2023/04/01 14:06:58;;;;;;;2.90;1.23;;;15.50;63.30;;;;;;4968548;28;20123;-84
2023/04/01 14:10:01;;;;;;;4.35;1.63;;;15.40;62.20;;;;;;4984487;28;20030;-85
2023/04/01 14:12:45;;;;;;;4.22;1.17;;;15.40;61.80;;;;;;4975934;28;20038;-85
2023/04/01 14:15:35;;;;;;;7.57;2.53;;;15.70;62.90;;;;;;4977947;28;20382;-84
2023/04/01 14:18:26;;;;;;;;;;;15.80;62.10;;;;;;4988399;28;20022;-87
2023/04/01 14:21:13;;;;;;;9.93;1.98;;;15.90;61.50;;;;;;4995178;28;19917;-86
2023/04/01 14:24:06;;;;;;;9.23;1.60;;;16.10;61.80;;;;;;4992228;28;20039;-87
2023/04/01 14:26:40;;;;;;;9.68;2.22;;;16.10;61.00;;;;;;4976000;28;20125;-89
2023/04/01 14:29:30;;;;;;;8.20;1.70;;;16.10;60.50;;;;;;4961477;28;20031;-88
2023/04/01 14:32:09;;;;;;;4.78;1.17;;;16.00;60.30;;;;;;4978127;28;20529;-88
2023/04/01 14:35:26;;;;;;;11.70;2.83;;;16.00;61.00;;;;;;4960273;28;20039;-88
2023/04/01 14:38:17;;;;;;;5.40;2.00;;;15.80;61.30;;;;;;4961204;28;20080;-87
2023/04/01 14:40:45;;;;;;;9.90;1.70;;;15.60;61.20;;;;;;4995720;28;20029;-88
2023/04/01 14:43:44;;;;;;;9.68;1.33;;;15.40;61.30;;;;;;4978402;28;20382;-89
2023/04/01 14:46:51;;;;;;;7.10;1.40;;;15.30;61.40;;;;;;4957873;28;20042;-89
2023/04/01 14:49:22;;;;;;;8.60;1.42;;;15.50;62.30;;;;;;4950220;28;20034;-89
2023/04/01 14:51:49;;;;;;;9.40;1.92;;;15.90;61.10;;;;;;4979026;28;20098;-81
2023/04/01 14:54:25;;;;;;;4.90;1.60;;;16.10;61.70;;;;;;4994594;28;20042;-80
2023/04/01 14:57:14;;;;;;;5.00;1.83;;;16.50;60.70;;;;;;4991890;28;20035;-81
2023/04/01 14:59:51;;;;;;;4.70;1.20;;;16.70;59.40;;;;;;4969915;28;20038;-85
2023/04/01 15:02:28;;;;;;;11.57;1.85;;;16.80;57.70;;;;;;4968095;28;20023;-81
2023/04/01 15:05:12;;;;;;;7.22;1.90;;;16.80;57.00;;;;;;4969719;28;20512;-81
2023/04/01 15:08:00;;;;;;;5.55;1.63;;;16.90;56.80;;;;;;4984728;28;20038;-80
2023/04/01 15:10:41;;;;;;;6.88;1.13;;;16.80;54.20;;;;;;4976790;28;20049;-80
2023/04/01 15:13:31;;;;;;;7.90;1.52;;;16.70;52.60;;;;;;4984772;28;20155;-80
2023/04/01 15:16:19;;;;;;;;;;;16.50;53.70;;;;;;4985276;28;20027;-80
2023/04/01 15:19:15;;;;;;;7.13;1.27;;;16.20;53.80;;;;;;4941820;28;19914;-80
2023/04/01 15:21:56;;;;;;;4.07;1.25;;;16.10;54.60;;;;;;4986104;28;20413;-80
2023/04/01 15:24:26;;;;;;;7.55;1.02;;;16.00;54.90;;;;;;4985955;28;20041;-80
2023/04/01 15:27:21;;;;;;;8.18;1.63;;;16.10;55.80;;;;;;4987548;28;20040;-79
2023/04/01 15:29:52;;;;;;;6.75;1.58;;;16.20;56.00;;;;;;4985587;28;20047;-80
2023/04/01 15:32:46;;;;;;;4.13;0.68;;;16.30;54.20;;;;;;4985133;28;20090;-80
2023/04/01 15:35:28;;;;;;;6.75;1.60;;;16.30;55.00;;;;;;4983398;28;20110;-80
2023/04/01 15:38:06;;;;;;;4.60;2.20;;;16.30;55.70;;;;;;4984478;28;20023;-80
2023/04/01 15:40:45;;;;;;;6.60;1.83;;;16.30;56.30;;;;;;4988692;28;20035;-80
2023/04/01 15:43:30;;;;;;;5.15;1.35;;;16.40;56.20;;;;;;4969554;28;20023;-81
2023/04/01 15:46:16;;;;;;;8.30;1.70;;;16.60;55.30;;;;;;4987548;28;20037;-80
2023/04/01 15:49:06;;;;;;;9.98;1.60;;;16.70;55.20;;;;;;4969086;28;20031;-80
2023/04/01 15:51:50;;;;;;;5.78;1.88;;;16.60;55.20;;;;;;4974546;28;20026;-80
2023/04/01 15:54:54;;;;;;;7.88;1.88;;;16.40;55.10;;;;;;4981330;28;20018;-80
2023/04/01 15:57:30;;;;;;;10.15;2.25;;;16.20;55.00;;;;;;4977433;28;20034;-80
2023/04/01 16:00:14;;;;;;;3.67;1.38;;;16.00;55.80;;;;;;4973454;28;20026;-80
2023/04/01 16:03:04;;;;;;;9.30;2.08;;;16.00;56.30;;;;;;4989182;28;20030;-80
2023/04/01 16:05:29;;;;;;;;;;;16.00;55.70;;;;;;4965884;28;20054;-80
2023/04/01 16:08:26;;;;;;;11.10;2.60;;;16.00;55.90;;;;;;4981414;28;20364;-80
2023/04/01 16:11:02;;;;;;;5.03;1.60;;;15.90;55.30;;;;;;4996084;28;20090;-79
2023/04/01 16:13:38;;;;;;;7.85;2.00;;;15.80;55.20;;;;;;4993183;28;20034;-80
2023/04/01 16:16:25;;;;;;;5.82;1.80;;;15.80;55.50;;;;;;4979080;28;20041;-79
2023/04/01 16:18:50;;;;;;;13.80;2.45;;;15.70;56.00;;;;;;4986808;28;20035;-80
2023/04/01 16:21:51;;;;;;;10.65;2.08;;;15.80;55.70;;;;;;4962228;28;20031;-80
2023/04/01 16:24:55;;;;;;;6.85;2.03;;;15.70;55.30;;;;;;4962582;28;20030;-88
2023/04/01 16:27:50;;;;;;;9.32;2.42;;;15.70;55.70;;;;;;4993493;28;20043;-80
2023/04/01 16:30:37;;;;;;;11.15;1.60;;;15.70;55.90;;;;;;4969803;28;20498;-80
2023/04/01 16:33:12;;;;;;;4.75;0.90;;;15.80;55.60;;;;;;4970100;28;20042;-80
2023/04/01 16:35:52;;;;;;;5.60;1.73;;;15.60;55.60;;;;;;4998939;28;20018;-80
2023/04/01 16:38:55;;;;;;;10.15;1.67;;;15.60;56.40;;;;;;4998803;28;20054;-80
2023/04/01 16:41:28;;;;;;;8.50;1.58;;;15.50;56.40;;;;;;4952694;28;20192;-85
2023/04/01 16:44:10;;;;;;;10.95;2.40;;;15.40;56.80;;;;;;4979296;28;20619;-84
2023/04/01 16:47:08;;;;;;;5.85;1.35;;;15.40;57.00;;;;;;4977742;28;20038;-79
2023/04/01 16:49:39;;;;;;;6.20;2.47;;;15.40;57.30;;;;;;4966462;28;20042;-78
2023/04/01 16:52:08;;;;;;;3.30;1.73;;;15.40;57.10;;;;;;4979949;28;20038;-78
2023/04/01 16:55:03;;;;;;;4.70;1.73;;;15.30;56.60;;;;;;4996495;28;20030;-78
2023/04/01 16:57:50;;;;;;;6.07;1.75;;;15.30;56.50;;;;;;4980845;28;20785;-79
2023/04/01 17:00:21;;;;;;;5.15;1.40;;;15.30;56.60;;;;;;4998276;28;20026;-78
2023/04/01 17:03:09;;;;;;;4.07;1.48;;;15.20;56.50;;;;;;4980252;28;20759;-76
2023/04/01 17:05:39;;;;;;;3.45;2.25;;;15.20;57.10;;;;;;4974264;28;20069;-78
2023/04/01 17:08:51;;;;;;;4.93;2.03;;;15.20;57.90;;;;;;4987823;28;20092;-80
2023/04/01 17:11:20;;;;;;;2.55;1.00;;;15.30;58.00;;;;;;4910425;29;20606;-83
2023/04/01 17:13:54;;;;;;;4.87;1.73;;;15.20;58.30;;;;;;4977976;28;20516;-79
2023/04/01 17:16:45;;;;;;;8.27;2.40;;;15.20;59.30;;;;;;4972087;28;20157;-83
2023/04/01 17:19:29;;;;;;;8.57;2.15;;;15.20;59.30;;;;;;4979794;28;20031;-75
2023/04/01 17:22:13;;;;;;;6.40;2.28;;;15.20;59.30;;;;;;4985468;28;20054;-76
2023/04/01 17:24:51;;;;;;;5.90;1.52;;;15.10;58.50;;;;;;4973851;28;20090;-76
2023/04/01 17:27:52;;;;;;;9.45;2.70;;;15.00;58.20;;;;;;4985822;28;20030;-77
2023/04/01 17:30:25;;;;;;;5.30;1.73;;;14.90;58.70;;;;;;4916707;28;20070;-75
2023/04/01 17:33:02;;;;;;;10.38;1.75;;;14.80;58.80;;;;;;4969482;28;20046;-76
2023/04/01 17:36:05;;;;;;;6.15;1.52;;;14.80;60.40;;;;;;4971989;28;20109;-76
2023/04/01 17:38:49;;;;;;;9.27;3.00;;;14.90;59.80;;;;;;4987559;28;20034;-74
2023/04/01 17:41:35;;;;;;;4.43;1.55;;;15.00;59.30;;;;;;4988359;28;20034;-74
2023/04/01 17:44:10;;;;;;;4.97;1.75;;;15.00;59.30;;;;;;4987176;28;20030;-77
2023/04/01 17:46:44;;;;;;;8.38;2.05;;;15.00;59.70;;;;;;4997436;28;20113;-74
2023/04/01 17:49:29;;;;;;;6.53;1.45;;;15.10;59.70;;;;;;5005470;28;20130;-75
2023/04/01 17:52:36;;;;;;;5.55;1.45;;;15.10;59.90;;;;;;4979542;28;20224;-74
2023/04/01 17:55:27;;;;;;;7.82;2.08;;;15.00;59.90;;;;;;4925156;28;20079;-75
2023/04/01 17:58:07;;;;;;;1.92;1.33;;;14.90;60.20;;;;;;4961036;28;20122;-76
2023/04/01 18:00:56;;;;;;;4.13;1.50;;;14.80;60.10;;;;;;4978300;28;20046;-74
2023/04/01 18:03:59;;;;;;;6.47;2.50;;;14.70;60.50;;;;;;4993383;28;20034;-76
2023/04/01 18:06:32;;;;;;;4.00;1.48;;;14.70;60.80;;;;;;4997468;28;20042;-75
2023/04/01 18:09:00;;;;;;;1.60;0.95;;;14.70;60.60;;;;;;4996023;28;20050;-75
2023/04/01 18:11:58;;;;;;;2.05;0.77;;;14.70;60.50;;;;;;4994448;28;20034;-75
2023/04/01 18:14:50;;;;;;;5.07;1.58;;;14.60;60.30;;;;;;4936979;28;20034;-75
2023/04/01 18:17:26;;;;;;;4.20;2.22;;;14.40;60.80;;;;;;4988231;28;20039;-75
2023/04/01 18:20:01;;;;;;;1.95;1.00;;;14.30;60.80;;;;;;4977890;28;20030;-75
2023/04/01 18:22:45;;;;;;;4.55;1.25;;;14.30;61.40;;;;;;4978340;28;20042;-75
2023/04/01 18:25:27;;;;;;;2.38;0.73;;;14.20;61.60;;;;;;4960170;28;20082;-75
2023/04/01 18:28:28;;;;;;;4.40;1.23;;;14.20;62.20;;;;;;4976141;28;20130;-75
2023/04/01 18:31:27;;;;;;;4.68;1.33;;;14.20;62.40;;;;;;4964898;28;20065;-75
2023/04/01 18:33:53;;;;;;;3.70;1.30;;;14.20;62.60;;;;;;4975030;28;20052;-76
2023/04/01 18:36:40;;;;;;;2.83;0.88;;;14.30;62.80;;;;;;4971286;28;20026;-77
2023/04/01 18:39:40;;;;;;;5.38;1.13;;;14.20;62.90;;;;;;4973913;28;20386;-74